Gaston, OR

10:01 AM PDT on July 07, 2015 (GMT -0700)
KORFORES4 | | Change Station
CLOSE
Current Station
Personal Weather Station
Location: Forest Grove, OR
Elevation: 361 ft
Nearby Weather Stations

Elev 361 ft 45.54 °N, 123.15 °W | Updated 15 seconds ago

Overcast
Overcast
63.4 °F
Feels Like 63.4 °F
N
0.0
Wind Variable Wind from NW
Gusts 3.0 mph

Today
High -- | Low -- °F
--% Chance of Precip.
Yesterday
High -- | Low -- °F
Precip. -- in
5:31 AM 9:03 PM
Waning Gibbous, 63% visible
Pressure 30.03 in
Visibility 10.0 miles
Clouds Overcast 1800 ft
Dew Point 56 °F
Humidity 77%
Rainfall 0.00 in
Snow Depth Not available.
UV 2 out of 12
Pollen 8.30 out of 12
Air Quality Not available.
Flu Activity Not available.
METAR KHIO 071653Z VRB04KT 10SM OVC018 18/12 A3004 RMK AO2 SLP169 T01830122

More Conditions Fewer Conditions

Pressure 30.03 in
Visibility 10.0 miles
Clouds Overcast 1800 ft
Dew Point 56 °F
Humidity 77%
Rainfall 0.00 in
Snow Depth Not available.
UV 2 out of 12
Pollen 8.30 out of 12
Air Quality Not available.
Flu Activity Not available.
METAR KHIO 071653Z VRB04KT 10SM OVC018 18/12 A3004 RMK AO2 SLP169 T01830122

More Conditions Fewer Conditions

10-Day Weather Forecast

×

Almanac

Astronomy

Jul. 07, 2015 Rise Set
Actual Time
Civil Twilight
Nautical Twilight
Astronomical Twilight
Moon
Length of Visible Light
Length of Day
Tomorrow will be .
, % of the Moon is Illuminated

Today's Extremes

State Highs State Lows

Community

WunderPhotos

Upload Photos

1,835,857 photos uploaded!

WunderBlogs® & News

Nearby

Air Quality

  Air Quality AQ Index Pollutant
Not available.

Snow Depth

Station Depth Elevation

Earthquake Activity

City Distance Mag. Time & Date
Minimum magnitude displayed is 2.5.

Coastal Water Temperatures

Place Temperature

Stations

Nearby Weather Stations

Station Location Temp. Windchill Dew Point Humidity Wind Precip. Elev Updated Type